Time;durP1;ratioP1;P1;durP2;ratioP2;P2;SDS_P1;SDS_P2;PMS_P1;PMS_P2;Temp;Humidity;BMP_temperature;BMP_pressure;BME280_temperature;BME280_humidity;BME280_pressure;Samples;Min_cycle;Max_cycle;Signal;HPM_P1;HPM_P2
2022/04/16 00:02:12;;;;;;;4.53;4.13;;;;;;;12.59;67.46;97267.44;5071695;28;20535;-61
2022/04/16 00:04:42;;;;;;;4.20;3.80;;;;;;;12.52;67.50;97266.34;5072324;28;20256;-61
2022/04/16 00:07:13;;;;;;;4.50;4.10;;;;;;;12.40;68.75;97265.63;5064759;28;20207;-60
2022/04/16 00:09:40;;;;;;;4.40;3.90;;;;;;;12.24;69.52;97265.34;5075346;28;20189;-61
2022/04/16 00:12:07;;;;;;;4.50;4.20;;;;;;;12.26;69.59;97262.53;5076077;28;20222;-61
2022/04/16 00:14:35;;;;;;;4.10;3.80;;;;;;;12.22;68.97;97266.47;5063874;28;20195;-61
2022/04/16 00:17:03;;;;;;;4.60;4.20;;;;;;;12.17;68.40;97261.56;5068189;28;20273;-60
2022/04/16 00:19:31;;;;;;;3.80;3.50;;;;;;;12.12;68.63;97261.13;5054813;28;20215;-61
2022/04/16 00:22:01;;;;;;;4.57;3.77;;;;;;;12.08;69.43;97264.22;5059276;28;20222;-60
2022/04/16 00:24:29;;;;;;;3.80;3.40;;;;;;;12.05;68.83;97262.66;5056088;28;20249;-61
2022/04/16 00:26:58;;;;;;;4.60;3.90;;;;;;;11.95;68.79;97260.00;5065931;28;20209;-60
2022/04/16 00:29:24;;;;;;;3.87;3.57;;;;;;;11.88;68.82;97258.03;5068410;28;20210;-61
2022/04/16 00:31:52;;;;;;;6.93;3.90;;;;;;;11.86;69.02;97252.88;5054543;28;20239;-60
2022/04/16 00:34:18;;;;;;;3.63;3.43;;;;;;;11.81;69.15;97255.09;5057219;28;20229;-61
2022/04/16 00:36:45;;;;;;;5.40;3.60;;;;;;;11.76;69.51;97259.13;5064912;28;20341;-60
2022/04/16 00:39:14;;;;;;;4.20;3.60;;;;;;;11.72;70.34;97253.25;5054424;28;20297;-61
2022/04/16 00:41:43;;;;;;;3.97;3.57;;;;;;;11.71;69.93;97261.34;5065099;28;20202;-61
2022/04/16 00:44:10;;;;;;;4.53;4.13;;;;;;;11.58;70.75;97255.41;5055997;28;20211;-60
2022/04/16 00:46:37;;;;;;;4.40;4.00;;;;;;;11.54;71.12;97254.84;5065693;28;20203;-60
2022/04/16 00:49:04;;;;;;;3.83;3.53;;;;;;;11.55;70.38;97251.19;5055496;28;20551;-60
2022/04/16 00:51:31;;;;;;;4.00;3.70;;;;;;;11.52;69.99;97253.28;5054542;28;20627;-60
2022/04/16 00:53:57;;;;;;;3.73;3.40;;;;;;;11.43;70.79;97254.94;5059126;28;20217;-62
2022/04/16 00:56:24;;;;;;;4.00;3.70;;;;;;;11.38;72.13;97259.78;5061582;28;20551;-60
2022/04/16 00:58:52;;;;;;;3.93;3.63;;;;;;;11.39;71.61;97258.81;5054453;28;20257;-61
2022/04/16 01:01:19;;;;;;;3.67;3.40;;;;;;;11.37;71.73;97250.19;5066043;28;20531;-61
2022/04/16 01:03:47;;;;;;;4.03;3.73;;;;;;;11.30;72.25;97251.69;5055491;28;20215;-60
2022/04/16 01:06:15;;;;;;;4.07;3.67;;;;;;;11.22;73.18;97246.19;5053465;28;20290;-61
2022/04/16 01:08:44;;;;;;;3.37;3.17;;;;;;;11.27;72.39;97251.91;5054069;28;20658;-60
2022/04/16 01:11:10;;;;;;;3.23;3.03;;;;;;;11.28;71.91;97249.16;5054567;28;20215;-60
2022/04/16 01:13:37;;;;;;;4.50;3.30;;;;;;;11.24;72.73;97252.19;5067610;28;20207;-60
2022/04/16 01:16:10;;;;;;;3.73;3.43;;;;;;;11.22;72.37;97251.50;5067195;28;20647;-61
2022/04/16 01:18:46;;;;;;;3.53;3.20;;;;;;;11.19;72.77;97249.97;5060987;28;20209;-61
2022/04/16 01:21:12;;;;;;;3.30;3.10;;;;;;;11.25;72.16;97253.88;5061027;28;20249;-61
2022/04/16 01:23:41;;;;;;;3.80;3.17;;;;;;;11.28;71.16;97243.84;5065583;28;20214;-61
2022/04/16 01:26:08;;;;;;;3.10;2.90;;;;;;;11.31;71.11;97250.69;5069366;28;20206;-61
2022/04/16 01:28:34;;;;;;;3.20;3.00;;;;;;;11.34;70.34;97250.41;5074220;28;20217;-60
2022/04/16 01:31:01;;;;;;;3.07;2.80;;;;;;;11.36;70.55;97251.13;5072043;28;20199;-62
2022/04/16 01:33:27;;;;;;;3.33;2.63;;;;;;;11.41;70.38;97255.06;5054140;28;20214;-61
2022/04/16 01:35:56;;;;;;;2.63;2.40;;;;;;;11.47;69.49;97256.34;5056254;28;20227;-61
2022/04/16 01:38:25;;;;;;;2.40;2.20;;;;;;;11.49;68.22;97257.03;5064706;28;20261;-61
2022/04/16 01:40:54;;;;;;;2.70;2.50;;;;;;;11.52;68.49;97248.81;5057274;28;20211;-60
2022/04/16 01:43:20;;;;;;;2.67;2.47;;;;;;;11.54;68.46;97249.53;5067357;28;20219;-61
2022/04/16 01:45:49;;;;;;;2.63;2.40;;;;;;;11.57;68.27;97257.22;5059741;28;20563;-60
2022/04/16 01:48:16;;;;;;;2.27;2.17;;;;;;;11.62;66.83;97254.97;5057550;28;20215;-61
2022/04/16 01:50:43;;;;;;;4.17;2.50;;;;;;;11.61;64.74;97255.97;5057947;28;20218;-61
2022/04/16 01:53:10;;;;;;;2.70;2.50;;;;;;;11.76;64.21;97253.84;5057617;28;20222;-60
2022/04/16 01:55:39;;;;;;;2.80;2.60;;;;;;;11.76;64.22;97262.59;5058121;28;20231;-60
2022/04/16 01:58:08;;;;;;;2.43;2.33;;;;;;;11.81;64.18;97256.91;5057440;28;20215;-61
2022/04/16 02:00:35;;;;;;;2.80;2.33;;;;;;;11.77;64.20;97266.09;5057514;28;20543;-61
2022/04/16 02:03:02;;;;;;;3.93;2.67;;;;;;;11.87;64.29;97257.19;5057325;28;20289;-60
2022/04/16 02:05:30;;;;;;;2.20;2.10;;;;;;;11.83;64.11;97261.06;5070322;28;20206;-59
2022/04/16 02:07:56;;;;;;;2.60;2.40;;;;;;;11.82;65.24;97264.72;5080826;28;20179;-60
2022/04/16 02:10:23;;;;;;;2.80;2.60;;;;;;;11.78;64.26;97271.25;5080104;28;20187;-60
2022/04/16 02:12:50;;;;;;;2.90;2.70;;;;;;;11.76;64.31;97270.53;5086953;28;20622;-60
2022/04/16 02:15:18;;;;;;;5.07;2.80;;;;;;;11.75;64.13;97258.28;5059554;28;20621;-60
2022/04/16 02:17:45;;;;;;;2.90;2.70;;;;;;;11.70;64.64;97267.56;5069179;28;20210;-60
2022/04/16 02:20:12;;;;;;;3.10;2.90;;;;;;;11.78;64.88;97262.47;5058086;28;20203;-61
2022/04/16 02:22:43;;;;;;;2.60;2.40;;;;;;;11.73;64.86;97272.63;5062721;28;20199;-60
2022/04/16 02:25:11;;;;;;;2.90;2.70;;;;;;;11.67;64.96;97270.50;5056932;28;20211;-60
2022/04/16 02:27:38;;;;;;;2.80;2.60;;;;;;;11.68;65.53;97261.56;5056448;28;20207;-60
2022/04/16 02:30:07;;;;;;;2.90;2.70;;;;;;;11.61;65.94;97266.56;5054787;28;20262;-60
2022/04/16 02:32:38;;;;;;;4.73;2.70;;;;;;;11.60;67.09;97275.50;5055880;28;20250;-60
2022/04/16 02:35:06;;;;;;;3.57;3.00;;;;;;;11.48;66.18;97265.94;5056552;28;20218;-60
2022/04/16 02:37:32;;;;;;;3.33;3.03;;;;;;;11.49;66.47;97273.78;5055924;28;20207;-60
2022/04/16 02:39:59;;;;;;;3.70;2.77;;;;;;;11.58;66.24;97269.50;5056694;28;20218;-60
2022/04/16 02:42:25;;;;;;;3.90;3.17;;;;;;;11.53;66.47;97273.50;5055950;28;20209;-60
2022/04/16 02:47:38;;;;;;;3.47;3.03;;;;;;;11.42;67.39;97266.50;5056408;28;20256;-60
2022/04/16 02:50:05;;;;;;;3.33;3.13;;;;;;;11.37;67.31;97268.72;5056130;28;20215;-60
2022/04/16 02:52:33;;;;;;;4.20;2.80;;;;;;;11.40;67.83;97268.44;5055753;28;20648;-61
2022/04/16 02:54:59;;;;;;;3.53;3.23;;;;;;;11.36;67.71;97273.16;5055819;28;20221;-61
2022/04/16 02:57:27;;;;;;;3.47;3.17;;;;;;;11.30;68.23;97264.91;5055788;28;20242;-60
2022/04/16 02:59:53;;;;;;;4.10;3.40;;;;;;;11.29;68.09;97271.19;5055428;28;20207;-60
2022/04/16 03:02:20;;;;;;;6.03;3.70;;;;;;;11.22;68.87;97275.31;5056082;28;20215;-60
2022/04/16 03:04:50;;;;;;;3.80;3.07;;;;;;;11.21;68.90;97271.84;5056281;28;20221;-60
2022/04/16 03:07:19;;;;;;;3.87;3.57;;;;;;;11.21;68.77;97273.63;5056110;28;20203;-61
2022/04/16 03:09:46;;;;;;;3.90;3.60;;;;;;;11.11;69.49;97278.03;5055820;28;20595;-60
2022/04/16 03:12:13;;;;;;;3.50;3.20;;;;;;;11.16;69.64;97271.38;5055754;28;20207;-60
2022/04/16 03:17:32;;;;;;;4.00;3.60;;;;;;;11.11;69.69;97270.09;5063925;28;20305;-60
2022/04/16 03:20:04;;;;;;;4.00;3.60;;;;;;;11.04;70.26;97276.88;5075890;28;20201;-60
2022/04/16 03:22:31;;;;;;;3.63;3.40;;;;;;;11.10;70.33;97284.28;5065274;28;20203;-59
2022/04/16 03:24:57;;;;;;;3.67;3.37;;;;;;;11.09;70.79;97280.00;5061291;28;20207;-60
2022/04/16 03:27:24;;;;;;;4.37;3.40;;;;;;;11.04;71.06;97282.19;5063745;28;20211;-60
2022/04/16 03:29:50;;;;;;;4.03;3.70;;;;;;;11.06;70.52;97278.44;5057097;28;20615;-60
2022/04/16 03:32:17;;;;;;;4.00;3.60;;;;;;;11.06;70.75;97269.63;5055632;28;20273;-60
2022/04/16 03:34:44;;;;;;;3.90;3.50;;;;;;;11.02;71.19;97270.91;5064876;28;20275;-59
2022/04/16 03:37:11;;;;;;;3.67;3.37;;;;;;;10.96;72.44;97281.03;5072329;28;20246;-60
2022/04/16 03:39:38;;;;;;;4.53;3.70;;;;;;;10.89;72.56;97274.56;5092826;28;20233;-60
2022/04/16 03:42:05;;;;;;;4.03;3.70;;;;;;;10.88;73.24;97267.59;5075658;28;20236;-61
2022/04/16 03:44:31;;;;;;;4.00;3.53;;;;;;;10.82;73.22;97278.69;5057197;28;20647;-60
2022/04/16 03:46:58;;;;;;;4.57;4.20;;;;;;;10.84;73.07;97275.94;5059880;28;20202;-60
2022/04/16 03:49:24;;;;;;;4.70;3.43;;;;;;;10.83;73.59;97267.16;5059729;28;20233;-60
2022/04/16 03:51:51;;;;;;;4.30;3.90;;;;;;;10.79;74.06;97271.03;5057257;28;20207;-61
2022/04/16 04:00:05;;;;;;;5.30;3.83;;;;;;;10.71;74.29;97277.91;5079223;28;20178;-59
2022/04/16 04:02:33;;;;;;;4.50;3.83;;;;;;;10.67;74.72;97282.63;5073513;28;20530;-60
2022/04/16 04:05:00;;;;;;;4.30;4.00;;;;;;;10.64;74.59;97284.69;5051687;28;20927;-60
2022/04/16 04:07:26;;;;;;;4.03;3.73;;;;;;;10.67;74.08;97287.06;5054841;28;20213;-60
2022/04/16 04:09:57;;;;;;;5.10;3.77;;;;;;;10.64;74.43;97285.53;5067954;28;20213;-60
2022/04/16 04:12:23;;;;;;;4.07;3.73;;;;;;;10.65;74.39;97281.94;5054587;28;20646;-61
2022/04/16 04:14:50;;;;;;;4.37;4.07;;;;;;;10.56;74.57;97282.66;5054229;28;20564;-59
2022/04/16 04:17:16;;;;;;;4.33;4.00;;;;;;;10.61;74.29;97282.31;5054387;28;20233;-60
2022/04/16 04:19:44;;;;;;;4.13;3.83;;;;;;;10.54;75.91;97289.06;5056627;28;20304;-60
2022/04/16 04:22:12;;;;;;;4.30;3.93;;;;;;;10.51;76.35;97290.16;5070348;28;20217;-60
2022/04/16 04:24:40;;;;;;;4.60;4.20;;;;;;;10.40;77.07;97284.91;5058177;28;20209;-60
2022/04/16 04:27:08;;;;;;;6.37;4.30;;;;;;;10.38;77.28;97289.50;5060611;28;20214;-60
2022/04/16 04:29:36;;;;;;;5.93;3.70;;;;;;;10.32;77.09;97284.69;5067827;28;20207;-60
2022/04/16 04:32:03;;;;;;;4.90;4.47;;;;;;;10.26;76.23;97295.78;5091009;28;20277;-60
2022/04/16 04:34:29;;;;;;;4.73;4.33;;;;;;;10.32;75.83;97295.28;5097922;28;20205;-60
2022/04/16 04:36:56;;;;;;;5.40;4.87;;;;;;;10.29;77.35;97295.53;5085904;28;20214;-59
2022/04/16 04:39:23;;;;;;;5.53;4.67;;;;;;;10.35;76.28;97303.78;5058288;28;20222;-60
2022/04/16 04:41:49;;;;;;;4.70;4.37;;;;;;;10.35;76.25;97316.16;5056244;28;20563;-60
2022/04/16 04:44:19;;;;;;;4.67;4.27;;;;;;;10.33;75.71;97324.25;5070593;28;20206;-60
2022/04/16 04:46:45;;;;;;;4.67;4.27;;;;;;;10.33;76.01;97318.13;5055662;28;20217;-60
2022/04/16 04:49:13;;;;;;;4.70;4.30;;;;;;;10.32;76.02;97322.56;5054804;28;20211;-60
2022/04/16 04:51:40;;;;;;;4.20;3.90;;;;;;;10.40;75.89;97316.66;5054736;28;20222;-60
2022/04/16 04:54:08;;;;;;;4.67;4.27;;;;;;;10.34;76.04;97328.56;5054949;28;20269;-60
2022/04/16 04:56:35;;;;;;;6.27;4.53;;;;;;;10.33;76.49;97326.03;5056163;28;20223;-60
2022/04/16 04:59:02;;;;;;;6.03;4.57;;;;;;;10.35;76.02;97332.03;5056789;28;20303;-61
2022/04/16 05:01:30;;;;;;;5.07;4.67;;;;;;;10.32;75.79;97321.72;5055714;28;20214;-60
2022/04/16 05:03:57;;;;;;;5.27;4.87;;;;;;;10.23;76.50;97327.75;5068058;28;20206;-60
2022/04/16 05:06:23;;;;;;;5.50;4.80;;;;;;;10.35;75.68;97337.31;5055449;28;20207;-61
2022/04/16 05:08:51;;;;;;;5.00;4.53;;;;;;;10.37;75.71;97338.06;5055268;28;20218;-60
2022/04/16 05:11:19;;;;;;;5.50;5.10;;;;;;;10.35;75.78;97335.53;5056216;28;20218;-61
2022/04/16 05:13:45;;;;;;;5.43;4.93;;;;;;;10.40;75.27;97345.72;5057456;28;20207;-60
2022/04/16 05:16:14;;;;;;;5.50;5.00;;;;;;;10.41;75.10;97334.19;5063597;28;20241;-60
2022/04/16 05:18:42;;;;;;;5.37;4.87;;;;;;;10.54;75.78;97342.81;5077598;28;20230;-61
2022/04/16 05:21:08;;;;;;;6.40;5.40;;;;;;;10.53;75.17;97335.81;5078690;28;20210;-61
2022/04/16 05:23:39;;;;;;;5.30;4.90;;;;;;;10.53;75.17;97329.69;5064904;28;20238;-61
2022/04/16 05:26:07;;;;;;;5.77;5.17;;;;;;;10.52;74.69;97331.53;5064403;28;20652;-60
2022/04/16 05:28:34;;;;;;;5.90;5.40;;;;;;;10.47;74.14;97326.59;5063042;28;20210;-61
2022/04/16 05:31:02;;;;;;;5.27;4.80;;;;;;;10.51;74.91;97348.34;5079188;28;20217;-60
2022/04/16 05:36:14;;;;;;;5.53;4.63;;;;;;;10.80;75.47;97346.78;5049386;28;20681;-60
2022/04/16 05:38:41;;;;;;;5.57;5.00;;;;;;;10.82;73.65;97346.66;5069586;28;20599;-60
2022/04/16 05:41:09;;;;;;;5.50;5.07;;;;;;;11.02;72.53;97353.75;5058815;28;20203;-60
2022/04/16 05:43:36;;;;;;;5.70;5.20;;;;;;;11.24;71.38;97347.50;5056611;28;20215;-60
2022/04/16 05:46:03;;;;;;;5.47;5.00;;;;;;;11.49;70.47;97347.09;5057812;28;20225;-61
2022/04/16 05:48:29;;;;;;;5.10;4.70;;;;;;;11.86;69.20;97342.16;5057660;28;20226;-60
2022/04/16 05:50:56;;;;;;;6.43;5.13;;;;;;;12.41;66.10;97343.41;5057712;28;20211;-60
2022/04/16 05:53:25;;;;;;;5.77;5.13;;;;;;;12.36;67.33;97348.28;5057232;28;20222;-61
2022/04/16 05:55:52;;;;;;;6.20;5.13;;;;;;;13.02;63.73;97340.50;5063749;28;20198;-61
2022/04/16 05:58:20;;;;;;;5.77;5.27;;;;;;;13.53;62.26;97350.78;5062992;28;20230;-60
2022/04/16 06:00:46;;;;;;;5.57;5.17;;;;;;;14.25;59.71;97350.91;5056724;28;20688;-60
2022/04/16 06:03:13;;;;;;;5.10;4.70;;;;;;;14.63;57.94;97355.19;5056639;28;20657;-59
2022/04/16 06:05:41;;;;;;;5.37;4.97;;;;;;;15.07;56.35;97356.94;5056829;28;20654;-61
2022/04/16 06:08:08;;;;;;;6.20;5.17;;;;;;;14.52;57.03;97360.72;5057165;28;20211;-60
2022/04/16 06:10:37;;;;;;;6.53;5.10;;;;;;;13.59;59.61;97367.00;5064278;28;20209;-59
2022/04/16 06:13:04;;;;;;;5.50;5.10;;;;;;;13.27;61.44;97372.66;5063126;28;20301;-60
2022/04/16 06:15:31;;;;;;;5.50;4.97;;;;;;;12.34;64.28;97388.19;5056809;28;20647;-60
2022/04/16 06:17:58;;;;;;;5.80;5.20;;;;;;;12.01;65.72;97395.63;5057450;28;20238;-60
2022/04/16 06:20:25;;;;;;;6.20;5.60;;;;;;;11.78;66.93;97381.72;5068773;28;20770;-61
2022/04/16 06:22:51;;;;;;;5.20;4.67;;;;;;;11.78;66.97;97368.47;5056622;28;20222;-60
2022/04/16 06:25:18;;;;;;;6.00;5.50;;;;;;;11.62;67.89;97376.84;5056124;28;20238;-60
2022/04/16 06:27:46;;;;;;;6.13;5.53;;;;;;;11.70;67.70;97382.34;5070153;28;20589;-60
2022/04/16 06:30:15;;;;;;;5.87;5.37;;;;;;;11.72;67.87;97375.16;5066631;28;20205;-62
2022/04/16 06:32:41;;;;;;;5.80;5.30;;;;;;;12.21;66.31;97378.81;5060166;28;20300;-60
2022/04/16 06:35:12;;;;;;;6.23;5.53;;;;;;;12.56;63.61;97365.91;5056473;28;20203;-61
2022/04/16 06:37:39;;;;;;;5.23;4.80;;;;;;;12.61;65.25;97374.28;5069867;28;20648;-60
2022/04/16 06:40:07;;;;;;;5.83;5.33;;;;;;;12.44;64.21;97377.59;5056765;28;20207;-60
2022/04/16 06:42:33;;;;;;;6.73;5.63;;;;;;;12.98;63.49;97387.72;5056789;28;20218;-61
2022/04/16 06:45:01;;;;;;;6.00;5.50;;;;;;;12.91;63.34;97382.13;5055228;28;20207;-59
2022/04/16 06:47:30;;;;;;;6.87;5.40;;;;;;;12.50;63.42;97393.00;5070370;28;20230;-61
2022/04/16 06:49:57;;;;;;;6.03;5.33;;;;;;;12.30;64.31;97388.59;5069247;28;20211;-63
2022/04/16 06:52:23;;;;;;;6.30;5.80;;;;;;;12.26;65.70;97395.13;5079547;28;20215;-61
2022/04/16 06:54:50;;;;;;;5.70;5.20;;;;;;;12.41;64.67;97388.50;5079768;28;20199;-60
2022/04/16 06:57:16;;;;;;;5.87;5.37;;;;;;;11.84;65.72;97387.31;5082101;28;20230;-59
2022/04/16 06:59:43;;;;;;;5.73;5.23;;;;;;;11.76;66.78;97375.72;5080423;28;20211;-60
2022/04/16 07:02:11;;;;;;;6.70;5.70;;;;;;;11.83;67.69;97388.28;5066193;28;20202;-62
2022/04/16 07:04:38;;;;;;;5.87;5.47;;;;;;;11.81;67.40;97387.59;5065564;28;20211;-61
2022/04/16 07:07:05;;;;;;;6.73;6.23;;;;;;;11.74;67.54;97389.09;5056038;28;20224;-60
2022/04/16 07:09:38;;;;;;;6.37;5.77;;;;;;;11.78;67.00;97384.38;5068294;28;20217;-60
2022/04/16 07:12:07;;;;;;;6.27;5.77;;;;;;;12.04;66.52;97384.75;5055579;28;20214;-60
2022/04/16 07:14:36;;;;;;;6.70;6.13;;;;;;;12.11;66.38;97384.09;5056805;28;20227;-59
2022/04/16 07:17:04;;;;;;;6.63;6.03;;;;;;;12.09;66.63;97382.53;5067930;28;20682;-60
2022/04/16 07:19:32;;;;;;;6.73;5.97;;;;;;;12.28;65.89;97387.91;5055737;28;20207;-60
2022/04/16 07:21:59;;;;;;;5.83;5.33;;;;;;;12.28;65.69;97387.91;5059916;28;20214;-61
2022/04/16 07:24:26;;;;;;;6.73;6.13;;;;;;;12.67;64.55;97384.34;5056583;28;20207;-61
2022/04/16 07:26:54;;;;;;;6.30;5.73;;;;;;;13.18;64.66;97388.59;5075946;28;20217;-62
2022/04/16 07:29:20;;;;;;;6.30;5.70;;;;;;;13.02;62.34;97393.59;5064551;28;20576;-61
2022/04/16 07:31:48;;;;;;;6.43;5.90;;;;;;;13.15;62.28;97399.47;5067733;28;20239;-61
2022/04/16 07:34:18;;;;;;;6.77;6.17;;;;;;;12.78;63.24;97380.75;5056485;28;20211;-61
2022/04/16 07:36:47;;;;;;;6.80;6.10;;;;;;;12.76;63.58;97388.81;5056865;28;20211;-61
2022/04/16 07:39:14;;;;;;;6.00;5.50;;;;;;;12.83;63.14;97392.59;5056906;28;20302;-61
2022/04/16 07:41:41;;;;;;;6.13;5.63;;;;;;;12.87;62.74;97391.34;5057087;28;20211;-61
2022/04/16 07:44:08;;;;;;;6.37;5.80;;;;;;;12.88;62.81;97392.19;5060521;28;20217;-61
2022/04/16 07:46:35;;;;;;;6.50;5.40;;;;;;;13.06;62.71;97390.53;5078150;28;20202;-58
2022/04/16 07:49:02;;;;;;;5.97;5.47;;;;;;;13.02;63.00;97382.97;5075619;28;20203;-59
2022/04/16 07:51:29;;;;;;;6.10;5.40;;;;;;;12.89;63.85;97396.53;5078834;28;20193;-60
2022/04/16 07:53:57;;;;;;;6.37;5.77;;;;;;;13.04;62.84;97389.00;5063811;28;20642;-61
2022/04/16 07:56:24;;;;;;;6.73;5.53;;;;;;;13.01;63.33;97395.41;5055882;28;20207;-60
2022/04/16 07:58:51;;;;;;;6.20;5.70;;;;;;;13.33;60.58;97392.47;5054786;28;20564;-61
2022/04/16 08:01:18;;;;;;;6.03;5.40;;;;;;;13.88;59.31;97391.69;5065256;28;20202;-60
2022/04/16 08:03:44;;;;;;;5.77;5.30;;;;;;;14.42;58.29;97400.69;5057379;28;20660;-59
2022/04/16 08:06:15;;;;;;;6.10;5.60;;;;;;;14.60;56.45;97401.56;5055443;28;20642;-60
2022/04/16 08:08:42;;;;;;;6.23;5.40;;;;;;;14.64;55.35;97408.28;5067476;28;20280;-59
2022/04/16 08:11:10;;;;;;;6.27;5.20;;;;;;;14.51;55.51;97407.78;5055179;28;20307;-61
2022/04/16 08:13:38;;;;;;;6.20;5.70;;;;;;;14.35;56.20;97410.25;5055301;28;20218;-62
2022/04/16 08:16:08;;;;;;;6.07;5.47;;;;;;;14.21;56.62;97419.53;5055394;28;20211;-59
2022/04/16 08:18:37;;;;;;;5.80;5.17;;;;;;;13.96;57.16;97421.03;5055165;28;20230;-61
2022/04/16 08:21:05;;;;;;;5.73;5.13;;;;;;;13.56;58.00;97419.59;5064106;28;20581;-61
2022/04/16 08:23:40;;;;;;;6.30;5.43;;;;;;;13.18;59.33;97425.78;5062833;28;20217;-60
2022/04/16 08:26:06;;;;;;;5.63;5.23;;;;;;;13.51;59.24;97417.34;5063934;28;20230;-60
2022/04/16 08:28:34;;;;;;;5.13;4.70;;;;;;;13.28;59.88;97421.31;5067996;28;20516;-59
2022/04/16 08:31:03;;;;;;;5.73;5.10;;;;;;;13.38;59.59;97428.28;5057384;28;20207;-60
2022/04/16 08:33:30;;;;;;;5.47;4.97;;;;;;;13.10;59.92;97422.97;5057751;28;20215;-59
2022/04/16 08:35:57;;;;;;;5.90;5.37;;;;;;;13.02;60.21;97426.31;5071307;28;20233;-61
2022/04/16 08:38:24;;;;;;;5.83;5.40;;;;;;;12.91;60.54;97437.88;5059872;28;20253;-60
2022/04/16 08:40:53;;;;;;;5.93;5.43;;;;;;;12.82;60.30;97435.22;5058947;28;20551;-60
2022/04/16 08:43:22;;;;;;;6.20;5.43;;;;;;;12.84;60.30;97439.41;5068255;28;20203;-61
2022/04/16 08:45:52;;;;;;;5.93;5.43;;;;;;;12.58;60.31;97438.25;5063058;28;20202;-61
2022/04/16 08:48:20;;;;;;;5.67;5.10;;;;;;;12.72;59.58;97440.50;5068514;28;20244;-59
2022/04/16 08:50:47;;;;;;;5.77;5.27;;;;;;;12.85;61.96;97440.25;5066805;28;20634;-60
2022/04/16 08:53:14;;;;;;;5.40;4.90;;;;;;;12.72;60.59;97448.47;5060975;28;20233;-60
2022/04/16 08:55:42;;;;;;;5.20;4.70;;;;;;;12.97;60.72;97434.66;5058798;28;20214;-60
2022/04/16 08:58:08;;;;;;;5.50;5.03;;;;;;;13.08;61.14;97441.66;5058771;28;20227;-60
2022/04/16 09:00:35;;;;;;;11.40;5.67;;;;;;;13.06;59.91;97437.47;5063461;28;20217;-60
2022/04/16 09:03:04;;;;;;;5.67;5.23;;;;;;;13.05;59.38;97435.78;5067214;28;20214;-60
2022/04/16 09:05:30;;;;;;;5.93;5.37;;;;;;;13.18;59.29;97433.75;5058707;28;20219;-60
2022/04/16 09:07:58;;;;;;;6.37;5.60;;;;;;;13.24;59.20;97439.34;5062890;28;20194;-60
2022/04/16 09:10:28;;;;;;;6.30;5.80;;;;;;;13.20;58.38;97439.75;5084958;28;20186;-60
2022/04/16 09:12:57;;;;;;;5.87;5.37;;;;;;;13.07;58.94;97442.66;5087645;28;20179;-60
2022/04/16 09:15:25;;;;;;;7.80;5.37;;;;;;;13.23;58.66;97439.47;5089052;28;20207;-61
2022/04/16 09:17:57;;;;;;;5.87;5.27;;;;;;;13.56;58.07;97452.31;5072500;28;20554;-61
2022/04/16 09:20:31;;;;;;;5.27;4.87;;;;;;;13.46;57.22;97446.19;5058549;28;20673;-60
2022/04/16 09:22:58;;;;;;;4.93;4.43;;;;;;;13.46;58.55;97456.81;5060501;28;20658;-61
2022/04/16 09:25:25;;;;;;;5.17;4.70;;;;;;;13.21;58.59;97463.53;5078302;28;20358;-61
2022/04/16 09:27:52;;;;;;;5.50;5.10;;;;;;;13.35;57.96;97449.84;5074897;28;20215;-61
2022/04/16 09:30:29;;;;;;;5.40;5.00;;;;;;;13.21;57.72;97454.72;5059426;28;20203;-60
2022/04/16 09:32:57;;;;;;;4.87;4.57;;;;;;;13.14;58.38;97458.91;5070691;28;20598;-61
2022/04/16 09:35:33;;;;;;;5.50;5.00;;;;;;;13.16;57.94;97459.59;5057900;28;20207;-60
2022/04/16 09:38:03;;;;;;;5.00;4.70;;;;;;;13.39;58.82;97476.97;5057417;28;20218;-60
2022/04/16 09:40:35;;;;;;;5.23;4.83;;;;;;;13.48;58.20;97470.78;5057136;28;20593;-60
2022/04/16 09:43:03;;;;;;;5.60;5.10;;;;;;;13.37;57.35;97486.88;5062822;28;20285;-60
2022/04/16 09:45:30;;;;;;;5.10;4.70;;;;;;;13.44;56.73;97480.00;5064089;28;20280;-60
2022/04/16 09:47:59;;;;;;;5.03;4.67;;;;;;;13.27;56.69;97484.22;5064920;28;20213;-61
2022/04/16 09:50:29;;;;;;;5.63;4.97;;;;;;;13.53;56.45;97481.84;5063129;28;20203;-60
2022/04/16 09:52:57;;;;;;;4.90;4.50;;;;;;;13.32;55.90;97489.13;5057297;28;20203;-61
2022/04/16 09:55:27;;;;;;;4.40;4.10;;;;;;;13.29;56.76;97481.41;5059226;28;20221;-60
2022/04/16 09:57:54;;;;;;;3.87;3.50;;;;;;;13.21;56.57;97478.63;5068430;28;20242;-60
2022/04/16 10:00:21;;;;;;;5.20;3.90;;;;;;;13.18;55.96;97478.91;5070455;28;20226;-60
2022/04/16 10:02:48;;;;;;;5.57;4.80;;;;;;;13.19;55.75;97475.25;5065277;28;20217;-59
2022/04/16 10:05:15;;;;;;;5.10;4.60;;;;;;;13.30;55.97;97488.41;5061425;28;20210;-61
2022/04/16 10:07:48;;;;;;;4.87;4.43;;;;;;;13.22;55.95;97498.88;5057380;28;20225;-60
2022/04/16 10:10:25;;;;;;;4.77;4.27;;;;;;;13.26;56.67;97487.00;5070915;28;20230;-59
2022/04/16 10:13:00;;;;;;;4.40;4.10;;;;;;;13.33;56.36;97488.13;5069038;28;20217;-60
2022/04/16 10:15:36;;;;;;;4.20;3.90;;;;;;;13.37;55.72;97484.22;5063683;28;20637;-60
2022/04/16 10:18:05;;;;;;;3.80;3.50;;;;;;;13.32;56.07;97484.63;5063505;28;20280;-60
2022/04/16 10:20:32;;;;;;;4.13;3.83;;;;;;;13.23;54.77;97482.81;5069408;28;20207;-59
2022/04/16 10:23:03;;;;;;;4.00;3.70;;;;;;;13.22;55.47;97486.44;5056777;28;20309;-60
2022/04/16 10:25:34;;;;;;;3.77;3.47;;;;;;;13.21;56.23;97483.94;5073589;28;20225;-59
2022/04/16 10:28:02;;;;;;;3.70;3.50;;;;;;;13.36;56.71;97487.84;5079703;28;20237;-61
2022/04/16 10:30:36;;;;;;;4.47;3.57;;;;;;;13.39;56.48;97492.91;5075585;28;20277;-60
2022/04/16 10:33:15;;;;;;;4.70;4.30;;;;;;;13.57;56.85;97501.00;5057303;28;20304;-60
2022/04/16 10:35:49;;;;;;;3.90;3.60;;;;;;;13.37;55.92;97485.06;5056500;28;20207;-60
2022/04/16 10:38:23;;;;;;;4.00;3.70;;;;;;;13.27;56.28;97491.34;5064831;28;20258;-61
2022/04/16 10:40:55;;;;;;;3.43;3.23;;;;;;;13.43;55.67;97489.81;5062306;28;20233;-61
2022/04/16 10:43:26;;;;;;;3.80;3.50;;;;;;;13.67;54.67;97492.03;5065744;28;20218;-61
2022/04/16 10:45:58;;;;;;;4.47;3.57;;;;;;;13.62;53.09;97494.28;5056286;28;20218;-60
2022/04/16 10:48:25;;;;;;;3.70;3.30;;;;;;;13.61;53.24;97500.56;5055597;28;20210;-59
2022/04/16 10:51:00;;;;;;;3.43;3.23;;;;;;;13.53;53.86;97488.97;5069573;28;20210;-60
2022/04/16 10:53:32;;;;;;;3.73;3.43;;;;;;;13.54;53.89;97487.97;5056348;28;20632;-60
2022/04/16 10:56:07;;;;;;;4.27;3.20;;;;;;;13.49;54.27;97493.72;5056540;28;20502;-60
2022/04/16 10:58:33;;;;;;;3.80;3.50;;;;;;;13.51;53.58;97483.78;5069330;28;20206;-60
2022/04/16 11:01:08;;;;;;;3.67;3.47;;;;;;;13.63;54.00;97485.34;5064908;28;20229;-61
2022/04/16 11:03:45;;;;;;;3.43;3.20;;;;;;;13.93;53.51;97485.13;5062979;28;20205;-60
2022/04/16 11:06:12;;;;;;;3.63;3.30;;;;;;;14.03;52.18;97482.44;5064579;28;20261;-60
2022/04/16 11:08:42;;;;;;;3.60;3.30;;;;;;;14.09;52.51;97483.72;5069434;28;20199;-60
2022/04/16 11:11:10;;;;;;;2.93;2.73;;;;;;;14.15;52.80;97491.94;5055716;28;20218;-60
2022/04/16 11:13:39;;;;;;;3.10;2.90;;;;;;;14.18;51.94;97482.81;5061957;28;20203;-59
2022/04/16 11:16:10;;;;;;;3.47;2.73;;;;;;;14.22;52.08;97494.84;5062465;28;20222;-60
2022/04/16 11:18:41;;;;;;;3.70;3.37;;;;;;;14.09;50.97;97497.00;5068111;28;20215;-60
2022/04/16 11:21:09;;;;;;;3.30;3.10;;;;;;;14.03;51.10;97490.41;5058926;28;20259;-61
2022/04/16 11:23:45;;;;;;;2.80;2.60;;;;;;;14.34;50.18;97486.59;5055943;28;20203;-61
2022/04/16 11:34:27;;;;;;;3.13;2.83;;;;;;;14.66;50.56;97480.00;5075896;28;20210;-60
2022/04/16 11:36:54;;;;;;;3.20;3.00;;;;;;;14.49;50.89;97484.28;5068245;28;20207;-58
2022/04/16 11:39:23;;;;;;;2.73;2.53;;;;;;;14.29;50.81;97480.00;5079067;28;20219;-59
2022/04/16 11:41:51;;;;;;;3.27;2.97;;;;;;;14.43;49.50;97482.22;5079093;28;20193;-60
2022/04/16 11:44:18;;;;;;;3.10;2.90;;;;;;;14.59;48.73;97478.94;5074266;28;20203;-58
2022/04/16 11:46:45;;;;;;;2.77;2.60;;;;;;;14.68;50.30;97478.88;5065387;28;20581;-60
2022/04/16 11:49:12;;;;;;;3.20;3.00;;;;;;;15.44;48.80;97479.34;5057028;28;20203;-60
2022/04/16 11:51:39;;;;;;;3.37;3.17;;;;;;;16.03;47.83;97467.16;5068001;28;20230;-60
2022/04/16 11:54:06;;;;;;;3.27;3.07;;;;;;;16.85;47.50;97467.47;5062021;28;20684;-60
2022/04/16 11:56:34;;;;;;;3.33;3.07;;;;;;;17.04;45.49;97477.84;5062932;28;20670;-60
2022/04/16 11:59:01;;;;;;;3.77;3.47;;;;;;;16.62;45.02;97466.34;5068842;28;20242;-60
2022/04/16 12:01:27;;;;;;;2.60;2.50;;;;;;;15.99;45.49;97468.47;5055454;28;20250;-61